sensor_id;sensor_type;location;lat;lon;timestamp;temperature;humidity
11087;DHT22;5597;47.588;9.642;2022-07-26T00:02:02;20.80;99.90
11087;DHT22;5597;47.588;9.642;2022-07-26T00:04:28;20.70;99.90
11087;DHT22;5597;47.588;9.642;2022-07-26T00:06:54;20.70;99.90
11087;DHT22;5597;47.588;9.642;2022-07-26T00:09:19;20.60;99.90
11087;DHT22;5597;47.588;9.642;2022-07-26T00:11:45;20.60;99.90
11087;DHT22;5597;47.588;9.642;2022-07-26T00:14:11;20.60;99.90
11087;DHT22;5597;47.588;9.642;2022-07-26T00:16:37;20.60;99.90
11087;DHT22;5597;47.588;9.642;2022-07-26T00:19:04;20.60;99.90
11087;DHT22;5597;47.588;9.642;2022-07-26T00:21:32;20.50;99.90
11087;DHT22;5597;47.588;9.642;2022-07-26T00:23:57;20.50;99.90
11087;DHT22;5597;47.588;9.642;2022-07-26T00:26:23;20.50;99.90
11087;DHT22;5597;47.588;9.642;2022-07-26T00:28:49;20.40;99.90
11087;DHT22;5597;47.588;9.642;2022-07-26T00:31:14;20.50;99.90
11087;DHT22;5597;47.588;9.642;2022-07-26T00:33:40;20.40;99.90
11087;DHT22;5597;47.588;9.642;2022-07-26T00:36:06;20.40;99.90
11087;DHT22;5597;47.588;9.642;2022-07-26T00:38:32;20.40;99.90
11087;DHT22;5597;47.588;9.642;2022-07-26T00:40:57;20.30;99.90
11087;DHT22;5597;47.588;9.642;2022-07-26T00:43:23;20.30;99.90
11087;DHT22;5597;47.588;9.642;2022-07-26T00:45:48;20.30;99.90
11087;DHT22;5597;47.588;9.642;2022-07-26T00:48:15;20.30;99.90
11087;DHT22;5597;47.588;9.642;2022-07-26T00:50:41;20.30;99.90
11087;DHT22;5597;47.588;9.642;2022-07-26T00:53:06;20.30;99.90
11087;DHT22;5597;47.588;9.642;2022-07-26T00:55:32;20.30;99.90
11087;DHT22;5597;47.588;9.642;2022-07-26T00:57:58;20.30;99.90
11087;DHT22;5597;47.588;9.642;2022-07-26T01:00:26;20.20;99.90
11087;DHT22;5597;47.588;9.642;2022-07-26T01:02:52;20.20;99.90
11087;DHT22;5597;47.588;9.642;2022-07-26T01:05:18;20.20;99.90
11087;DHT22;5597;47.588;9.642;2022-07-26T01:07:45;20.20;99.90
11087;DHT22;5597;47.588;9.642;2022-07-26T01:10:11;20.20;99.90
11087;DHT22;5597;47.588;9.642;2022-07-26T01:12:38;20.20;99.90
11087;DHT22;5597;47.588;9.642;2022-07-26T01:15:05;20.20;99.90
11087;DHT22;5597;47.588;9.642;2022-07-26T01:17:31;20.20;99.90
11087;DHT22;5597;47.588;9.642;2022-07-26T01:19:56;20.30;99.90
11087;DHT22;5597;47.588;9.642;2022-07-26T01:22:22;20.20;99.90
11087;DHT22;5597;47.588;9.642;2022-07-26T01:24:47;20.20;99.90
11087;DHT22;5597;47.588;9.642;2022-07-26T01:27:13;20.20;99.90
11087;DHT22;5597;47.588;9.642;2022-07-26T01:29:38;20.20;99.90
11087;DHT22;5597;47.588;9.642;2022-07-26T01:32:04;20.30;99.90
11087;DHT22;5597;47.588;9.642;2022-07-26T01:34:30;20.20;99.90
11087;DHT22;5597;47.588;9.642;2022-07-26T01:36:56;20.30;99.90
11087;DHT22;5597;47.588;9.642;2022-07-26T01:39:22;20.30;99.90
11087;DHT22;5597;47.588;9.642;2022-07-26T01:41:48;20.30;99.90
11087;DHT22;5597;47.588;9.642;2022-07-26T01:44:14;20.20;99.90
11087;DHT22;5597;47.588;9.642;2022-07-26T01:46:39;20.10;99.90
11087;DHT22;5597;47.588;9.642;2022-07-26T01:49:05;20.10;99.90
11087;DHT22;5597;47.588;9.642;2022-07-26T01:51:32;20.10;99.90
11087;DHT22;5597;47.588;9.642;2022-07-26T01:53:59;20.10;99.90
11087;DHT22;5597;47.588;9.642;2022-07-26T01:56:25;20.10;99.90
11087;DHT22;5597;47.588;9.642;2022-07-26T01:58:51;20.10;99.90
11087;DHT22;5597;47.588;9.642;2022-07-26T02:01:17;20.20;99.90
11087;DHT22;5597;47.588;9.642;2022-07-26T02:03:42;20.20;99.90
11087;DHT22;5597;47.588;9.642;2022-07-26T02:06:08;20.20;99.90
11087;DHT22;5597;47.588;9.642;2022-07-26T02:08:34;20.20;99.90
11087;DHT22;5597;47.588;9.642;2022-07-26T02:10:59;20.20;99.90
11087;DHT22;5597;47.588;9.642;2022-07-26T02:13:45;20.20;99.90
11087;DHT22;5597;47.588;9.642;2022-07-26T02:16:13;20.20;99.90
11087;DHT22;5597;47.588;9.642;2022-07-26T02:18:39;20.20;99.90
11087;DHT22;5597;47.588;9.642;2022-07-26T02:21:06;20.20;99.90
11087;DHT22;5597;47.588;9.642;2022-07-26T02:23:32;20.20;99.90
11087;DHT22;5597;47.588;9.642;2022-07-26T02:25:59;20.30;99.90
11087;DHT22;5597;47.588;9.642;2022-07-26T02:28:25;20.20;99.90
11087;DHT22;5597;47.588;9.642;2022-07-26T02:30:50;20.30;99.90
11087;DHT22;5597;47.588;9.642;2022-07-26T02:33:17;20.20;99.90
11087;DHT22;5597;47.588;9.642;2022-07-26T02:35:44;20.20;99.90
11087;DHT22;5597;47.588;9.642;2022-07-26T02:38:12;20.20;99.90
11087;DHT22;5597;47.588;9.642;2022-07-26T02:40:39;20.10;99.90
11087;DHT22;5597;47.588;9.642;2022-07-26T02:43:06;20.10;99.90
11087;DHT22;5597;47.588;9.642;2022-07-26T02:45:32;20.10;99.90
11087;DHT22;5597;47.588;9.642;2022-07-26T02:47:58;20.00;99.90
11087;DHT22;5597;47.588;9.642;2022-07-26T02:50:25;20.00;99.90
11087;DHT22;5597;47.588;9.642;2022-07-26T02:52:51;20.00;99.90
11087;DHT22;5597;47.588;9.642;2022-07-26T02:55:20;20.00;99.90
11087;DHT22;5597;47.588;9.642;2022-07-26T02:57:46;19.90;99.90
11087;DHT22;5597;47.588;9.642;2022-07-26T03:00:14;19.90;99.90
11087;DHT22;5597;47.588;9.642;2022-07-26T03:02:40;19.90;99.90
11087;DHT22;5597;47.588;9.642;2022-07-26T03:05:06;19.90;99.90
11087;DHT22;5597;47.588;9.642;2022-07-26T03:07:32;19.80;99.90
11087;DHT22;5597;47.588;9.642;2022-07-26T03:09:58;19.80;99.90
11087;DHT22;5597;47.588;9.642;2022-07-26T03:12:24;19.80;99.90
11087;DHT22;5597;47.588;9.642;2022-07-26T03:14:50;19.80;99.90
11087;DHT22;5597;47.588;9.642;2022-07-26T03:17:15;19.70;99.90
11087;DHT22;5597;47.588;9.642;2022-07-26T03:19:41;19.70;99.90
11087;DHT22;5597;47.588;9.642;2022-07-26T03:22:07;19.70;99.90
11087;DHT22;5597;47.588;9.642;2022-07-26T03:24:32;19.70;99.90
11087;DHT22;5597;47.588;9.642;2022-07-26T03:26:59;19.70;99.90
11087;DHT22;5597;47.588;9.642;2022-07-26T03:29:24;19.60;99.90
11087;DHT22;5597;47.588;9.642;2022-07-26T03:31:50;19.70;99.90
11087;DHT22;5597;47.588;9.642;2022-07-26T03:34:16;19.70;99.90
11087;DHT22;5597;47.588;9.642;2022-07-26T03:36:42;19.70;99.90
11087;DHT22;5597;47.588;9.642;2022-07-26T03:39:08;19.70;99.90
11087;DHT22;5597;47.588;9.642;2022-07-26T03:41:34;19.70;99.90
11087;DHT22;5597;47.588;9.642;2022-07-26T03:44:00;19.60;99.90
11087;DHT22;5597;47.588;9.642;2022-07-26T03:46:25;19.60;99.90
11087;DHT22;5597;47.588;9.642;2022-07-26T03:48:51;19.60;99.90
11087;DHT22;5597;47.588;9.642;2022-07-26T03:51:17;19.60;99.90
11087;DHT22;5597;47.588;9.642;2022-07-26T03:53:42;19.60;99.90
11087;DHT22;5597;47.588;9.642;2022-07-26T03:56:08;19.60;99.90
11087;DHT22;5597;47.588;9.642;2022-07-26T03:59:03;19.60;99.90
11087;DHT22;5597;47.588;9.642;2022-07-26T04:01:29;19.60;99.90
11087;DHT22;5597;47.588;9.642;2022-07-26T04:03:55;19.50;99.90
11087;DHT22;5597;47.588;9.642;2022-07-26T04:06:21;19.50;99.90
11087;DHT22;5597;47.588;9.642;2022-07-26T04:08:47;19.50;99.90
11087;DHT22;5597;47.588;9.642;2022-07-26T04:11:13;19.50;99.90
11087;DHT22;5597;47.588;9.642;2022-07-26T04:13:39;19.50;99.90
11087;DHT22;5597;47.588;9.642;2022-07-26T04:16:05;19.50;99.90
11087;DHT22;5597;47.588;9.642;2022-07-26T04:18:30;19.50;99.90
11087;DHT22;5597;47.588;9.642;2022-07-26T04:20:56;19.50;99.90
11087;DHT22;5597;47.588;9.642;2022-07-26T04:23:22;19.50;99.90
11087;DHT22;5597;47.588;9.642;2022-07-26T04:25:48;19.50;99.90
11087;DHT22;5597;47.588;9.642;2022-07-26T04:28:13;19.50;99.90
11087;DHT22;5597;47.588;9.642;2022-07-26T04:30:39;19.50;99.90
11087;DHT22;5597;47.588;9.642;2022-07-26T04:33:05;19.50;99.90
11087;DHT22;5597;47.588;9.642;2022-07-26T04:35:32;19.50;99.90
11087;DHT22;5597;47.588;9.642;2022-07-26T04:37:58;19.50;99.90
11087;DHT22;5597;47.588;9.642;2022-07-26T04:40:24;19.40;99.90
11087;DHT22;5597;47.588;9.642;2022-07-26T04:42:52;19.40;99.90
11087;DHT22;5597;47.588;9.642;2022-07-26T04:45:18;19.40;99.90
11087;DHT22;5597;47.588;9.642;2022-07-26T04:47:46;19.40;99.90
11087;DHT22;5597;47.588;9.642;2022-07-26T04:50:14;19.40;99.90
11087;DHT22;5597;47.588;9.642;2022-07-26T04:52:39;19.40;99.90
11087;DHT22;5597;47.588;9.642;2022-07-26T04:55:06;19.40;99.90
11087;DHT22;5597;47.588;9.642;2022-07-26T04:57:32;19.40;99.90
11087;DHT22;5597;47.588;9.642;2022-07-26T04:59:57;19.40;99.90
11087;DHT22;5597;47.588;9.642;2022-07-26T05:02:23;19.40;99.90
11087;DHT22;5597;47.588;9.642;2022-07-26T05:04:49;19.40;99.90
11087;DHT22;5597;47.588;9.642;2022-07-26T05:07:14;19.50;99.90
11087;DHT22;5597;47.588;9.642;2022-07-26T05:09:40;19.50;99.90
11087;DHT22;5597;47.588;9.642;2022-07-26T05:12:06;19.40;99.90
11087;DHT22;5597;47.588;9.642;2022-07-26T05:14:32;19.50;99.90
11087;DHT22;5597;47.588;9.642;2022-07-26T05:16:57;19.50;99.90
11087;DHT22;5597;47.588;9.642;2022-07-26T05:19:23;19.50;99.90
11087;DHT22;5597;47.588;9.642;2022-07-26T05:21:48;19.50;99.90
11087;DHT22;5597;47.588;9.642;2022-07-26T05:24:16;19.50;99.90
11087;DHT22;5597;47.588;9.642;2022-07-26T05:26:41;19.50;99.90
11087;DHT22;5597;47.588;9.642;2022-07-26T05:29:07;19.50;99.90
11087;DHT22;5597;47.588;9.642;2022-07-26T05:31:33;19.50;99.90
11087;DHT22;5597;47.588;9.642;2022-07-26T05:33:59;19.50;99.90
11087;DHT22;5597;47.588;9.642;2022-07-26T05:36:24;19.50;99.90
11087;DHT22;5597;47.588;9.642;2022-07-26T05:38:50;19.50;99.90
11087;DHT22;5597;47.588;9.642;2022-07-26T05:41:15;19.60;99.90
11087;DHT22;5597;47.588;9.642;2022-07-26T05:43:41;19.60;99.90
11087;DHT22;5597;47.588;9.642;2022-07-26T05:46:06;19.70;99.90
11087;DHT22;5597;47.588;9.642;2022-07-26T05:48:33;19.70;99.90
11087;DHT22;5597;47.588;9.642;2022-07-26T05:50:58;19.70;99.90
11087;DHT22;5597;47.588;9.642;2022-07-26T05:53:25;19.70;99.90
11087;DHT22;5597;47.588;9.642;2022-07-26T05:55:50;19.70;99.90
11087;DHT22;5597;47.588;9.642;2022-07-26T05:58:16;19.70;99.90
11087;DHT22;5597;47.588;9.642;2022-07-26T06:00:42;19.70;99.90
11087;DHT22;5597;47.588;9.642;2022-07-26T06:03:07;19.70;99.90
11087;DHT22;5597;47.588;9.642;2022-07-26T06:06:02;19.70;99.90
11087;DHT22;5597;47.588;9.642;2022-07-26T06:08:28;19.80;99.90
11087;DHT22;5597;47.588;9.642;2022-07-26T06:10:53;19.80;99.90
11087;DHT22;5597;47.588;9.642;2022-07-26T06:13:19;19.80;99.90
11087;DHT22;5597;47.588;9.642;2022-07-26T06:15:45;19.80;99.90
11087;DHT22;5597;47.588;9.642;2022-07-26T06:18:11;19.80;99.90
11087;DHT22;5597;47.588;9.642;2022-07-26T06:20:38;19.90;99.90
11087;DHT22;5597;47.588;9.642;2022-07-26T06:23:04;20.00;99.90
11087;DHT22;5597;47.588;9.642;2022-07-26T06:25:30;20.00;99.90
11087;DHT22;5597;47.588;9.642;2022-07-26T06:27:55;20.10;99.90
11087;DHT22;5597;47.588;9.642;2022-07-26T06:30:21;20.20;99.90
11087;DHT22;5597;47.588;9.642;2022-07-26T06:32:47;20.20;99.90
11087;DHT22;5597;47.588;9.642;2022-07-26T06:35:13;20.30;99.90
11087;DHT22;5597;47.588;9.642;2022-07-26T06:37:40;20.40;99.90
11087;DHT22;5597;47.588;9.642;2022-07-26T06:40:07;20.50;99.90
11087;DHT22;5597;47.588;9.642;2022-07-26T06:42:34;20.60;99.90
11087;DHT22;5597;47.588;9.642;2022-07-26T06:45:00;20.70;99.90
11087;DHT22;5597;47.588;9.642;2022-07-26T06:47:25;20.70;99.90
11087;DHT22;5597;47.588;9.642;2022-07-26T06:49:51;20.80;99.90
11087;DHT22;5597;47.588;9.642;2022-07-26T06:52:17;21.00;99.90
11087;DHT22;5597;47.588;9.642;2022-07-26T06:54:43;21.10;99.90
11087;DHT22;5597;47.588;9.642;2022-07-26T06:57:08;21.20;99.90
11087;DHT22;5597;47.588;9.642;2022-07-26T06:59:34;21.30;99.90
11087;DHT22;5597;47.588;9.642;2022-07-26T07:02:00;21.40;99.90
11087;DHT22;5597;47.588;9.642;2022-07-26T07:04:29;21.30;99.90
11087;DHT22;5597;47.588;9.642;2022-07-26T07:06:55;21.20;99.90
11087;DHT22;5597;47.588;9.642;2022-07-26T07:09:22;21.20;99.90
11087;DHT22;5597;47.588;9.642;2022-07-26T07:11:48;21.20;99.90
11087;DHT22;5597;47.588;9.642;2022-07-26T07:14:14;21.20;99.90
11087;DHT22;5597;47.588;9.642;2022-07-26T07:16:40;21.20;99.90
11087;DHT22;5597;47.588;9.642;2022-07-26T07:19:06;21.10;99.90
11087;DHT22;5597;47.588;9.642;2022-07-26T07:21:31;21.00;99.90
11087;DHT22;5597;47.588;9.642;2022-07-26T07:23:58;20.90;99.90
11087;DHT22;5597;47.588;9.642;2022-07-26T07:26:24;20.90;99.90
11087;DHT22;5597;47.588;9.642;2022-07-26T07:28:49;20.90;99.90
11087;DHT22;5597;47.588;9.642;2022-07-26T07:31:15;20.80;99.90
11087;DHT22;5597;47.588;9.642;2022-07-26T07:33:41;20.80;99.90
11087;DHT22;5597;47.588;9.642;2022-07-26T07:36:06;20.80;99.90
11087;DHT22;5597;47.588;9.642;2022-07-26T07:38:32;20.80;99.90
11087;DHT22;5597;47.588;9.642;2022-07-26T07:40:58;20.80;99.90
11087;DHT22;5597;47.588;9.642;2022-07-26T07:43:23;20.80;99.90
11087;DHT22;5597;47.588;9.642;2022-07-26T07:45:49;20.80;99.90
11087;DHT22;5597;47.588;9.642;2022-07-26T07:48:14;20.90;99.90
11087;DHT22;5597;47.588;9.642;2022-07-26T07:50:40;20.90;99.90
11087;DHT22;5597;47.588;9.642;2022-07-26T07:53:05;20.90;99.90
11087;DHT22;5597;47.588;9.642;2022-07-26T07:55:31;20.90;99.90
11087;DHT22;5597;47.588;9.642;2022-07-26T07:57:57;20.90;99.90
11087;DHT22;5597;47.588;9.642;2022-07-26T08:00:22;21.00;99.90
11087;DHT22;5597;47.588;9.642;2022-07-26T08:02:49;21.00;99.90
11087;DHT22;5597;47.588;9.642;2022-07-26T08:05:14;21.10;99.90
11087;DHT22;5597;47.588;9.642;2022-07-26T08:07:40;21.20;99.90
11087;DHT22;5597;47.588;9.642;2022-07-26T08:10:05;21.20;99.90
11087;DHT22;5597;47.588;9.642;2022-07-26T08:12:31;21.20;99.90
11087;DHT22;5597;47.588;9.642;2022-07-26T08:14:57;21.30;99.90
11087;DHT22;5597;47.588;9.642;2022-07-26T08:17:23;21.30;99.90
11087;DHT22;5597;47.588;9.642;2022-07-26T08:19:48;21.30;99.90
11087;DHT22;5597;47.588;9.642;2022-07-26T08:22:14;21.50;99.90
11087;DHT22;5597;47.588;9.642;2022-07-26T08:24:39;21.60;99.90
11087;DHT22;5597;47.588;9.642;2022-07-26T08:27:06;21.70;99.90
11087;DHT22;5597;47.588;9.642;2022-07-26T08:29:31;21.90;99.90
11087;DHT22;5597;47.588;9.642;2022-07-26T08:31:57;22.00;99.90
11087;DHT22;5597;47.588;9.642;2022-07-26T08:34:23;22.00;99.90
11087;DHT22;5597;47.588;9.642;2022-07-26T08:36:48;22.10;99.90
11087;DHT22;5597;47.588;9.642;2022-07-26T08:39:14;22.20;99.90
11087;DHT22;5597;47.588;9.642;2022-07-26T08:41:42;22.20;99.90
11087;DHT22;5597;47.588;9.642;2022-07-26T08:44:09;22.20;99.90
11087;DHT22;5597;47.588;9.642;2022-07-26T08:46:36;22.20;99.90
11087;DHT22;5597;47.588;9.642;2022-07-26T08:49:04;22.20;99.90
11087;DHT22;5597;47.588;9.642;2022-07-26T08:51:31;22.30;99.90
11087;DHT22;5597;47.588;9.642;2022-07-26T08:53:58;22.30;99.90
11087;DHT22;5597;47.588;9.642;2022-07-26T08:56:25;22.40;99.90
11087;DHT22;5597;47.588;9.642;2022-07-26T08:58:50;22.40;99.90
11087;DHT22;5597;47.588;9.642;2022-07-26T09:01:16;22.50;99.90
11087;DHT22;5597;47.588;9.642;2022-07-26T09:03:43;22.50;99.90
11087;DHT22;5597;47.588;9.642;2022-07-26T09:06:21;22.60;99.90
11087;DHT22;5597;47.588;9.642;2022-07-26T09:08:50;22.70;99.90
11087;DHT22;5597;47.588;9.642;2022-07-26T09:11:25;22.60;99.90
11087;DHT22;5597;47.588;9.642;2022-07-26T09:13:59;22.60;99.90
11087;DHT22;5597;47.588;9.642;2022-07-26T09:16:27;22.70;99.90
11087;DHT22;5597;47.588;9.642;2022-07-26T09:18:52;22.90;99.90
11087;DHT22;5597;47.588;9.642;2022-07-26T09:21:30;23.00;99.90
11087;DHT22;5597;47.588;9.642;2022-07-26T09:23:57;23.00;99.90
11087;DHT22;5597;47.588;9.642;2022-07-26T09:26:22;23.00;99.90
11087;DHT22;5597;47.588;9.642;2022-07-26T09:29:20;23.20;99.90
11087;DHT22;5597;47.588;9.642;2022-07-26T09:31:46;23.30;99.90
11087;DHT22;5597;47.588;9.642;2022-07-26T09:34:11;23.30;99.90
11087;DHT22;5597;47.588;9.642;2022-07-26T09:36:52;23.40;99.90
11087;DHT22;5597;47.588;9.642;2022-07-26T09:39:18;23.40;99.90
11087;DHT22;5597;47.588;9.642;2022-07-26T09:41:43;23.40;99.90
11087;DHT22;5597;47.588;9.642;2022-07-26T09:44:20;23.60;99.90
11087;DHT22;5597;47.588;9.642;2022-07-26T09:46:55;23.70;99.90
11087;DHT22;5597;47.588;9.642;2022-07-26T09:49:22;23.70;99.90
11087;DHT22;5597;47.588;9.642;2022-07-26T09:51:50;23.60;99.90
11087;DHT22;5597;47.588;9.642;2022-07-26T09:56:54;23.80;99.90
11087;DHT22;5597;47.588;9.642;2022-07-26T09:59:25;23.90;99.90
11087;DHT22;5597;47.588;9.642;2022-07-26T10:01:52;24.10;99.90
11087;DHT22;5597;47.588;9.642;2022-07-26T10:04:19;24.30;99.90
11087;DHT22;5597;47.588;9.642;2022-07-26T10:06:45;24.60;99.90
11087;DHT22;5597;47.588;9.642;2022-07-26T10:09:12;24.70;99.90
11087;DHT22;5597;47.588;9.642;2022-07-26T10:12:05;24.80;99.90
11087;DHT22;5597;47.588;9.642;2022-07-26T10:14:38;24.80;99.90
11087;DHT22;5597;47.588;9.642;2022-07-26T10:19:56;24.80;99.90
11087;DHT22;5597;47.588;9.642;2022-07-26T10:22:27;24.70;99.90
11087;DHT22;5597;47.588;9.642;2022-07-26T10:27:54;24.60;99.90
11087;DHT22;5597;47.588;9.642;2022-07-26T10:33:12;24.60;99.90
11087;DHT22;5597;47.588;9.642;2022-07-26T10:35:40;24.90;99.90
11087;DHT22;5597;47.588;9.642;2022-07-26T10:38:25;25.10;99.90
11087;DHT22;5597;47.588;9.642;2022-07-26T10:41:03;25.40;99.90
11087;DHT22;5597;47.588;9.642;2022-07-26T10:43:30;25.70;99.90
11087;DHT22;5597;47.588;9.642;2022-07-26T10:48:59;25.70;99.90
11087;DHT22;5597;47.588;9.642;2022-07-26T10:51:34;25.90;99.90
11087;DHT22;5597;47.588;9.642;2022-07-26T10:54:03;26.10;99.90
11087;DHT22;5597;47.588;9.642;2022-07-26T10:56:29;26.30;99.90
11087;DHT22;5597;47.588;9.642;2022-07-26T10:58:56;26.20;99.90
11087;DHT22;5597;47.588;9.642;2022-07-26T11:01:21;26.20;99.90
11087;DHT22;5597;47.588;9.642;2022-07-26T11:03:47;26.20;99.90
11087;DHT22;5597;47.588;9.642;2022-07-26T11:06:15;26.40;99.90
11087;DHT22;5597;47.588;9.642;2022-07-26T11:08:43;26.70;99.90
11087;DHT22;5597;47.588;9.642;2022-07-26T11:11:09;26.70;99.90
11087;DHT22;5597;47.588;9.642;2022-07-26T11:13:35;26.60;99.90
11087;DHT22;5597;47.588;9.642;2022-07-26T11:16:04;26.70;99.90
11087;DHT22;5597;47.588;9.642;2022-07-26T11:18:32;26.80;99.90
11087;DHT22;5597;47.588;9.642;2022-07-26T11:21:15;26.80;99.90
11087;DHT22;5597;47.588;9.642;2022-07-26T11:23:43;26.50;99.90
11087;DHT22;5597;47.588;9.642;2022-07-26T11:26:20;26.50;99.90
11087;DHT22;5597;47.588;9.642;2022-07-26T11:28:58;26.40;99.90
11087;DHT22;5597;47.588;9.642;2022-07-26T11:31:39;26.50;99.90
11087;DHT22;5597;47.588;9.642;2022-07-26T11:34:06;26.50;99.90
11087;DHT22;5597;47.588;9.642;2022-07-26T11:38:57;26.20;99.90
11087;DHT22;5597;47.588;9.642;2022-07-26T11:41:25;26.20;99.90
11087;DHT22;5597;47.588;9.642;2022-07-26T11:43:52;26.20;99.90
11087;DHT22;5597;47.588;9.642;2022-07-26T11:46:18;26.30;99.90
11087;DHT22;5597;47.588;9.642;2022-07-26T11:48:49;26.40;99.90
11087;DHT22;5597;47.588;9.642;2022-07-26T11:51:17;26.30;99.90
11087;DHT22;5597;47.588;9.642;2022-07-26T11:53:43;26.20;99.90
11087;DHT22;5597;47.588;9.642;2022-07-26T11:58:39;25.80;99.90
11087;DHT22;5597;47.588;9.642;2022-07-26T12:01:06;25.60;99.90
11087;DHT22;5597;47.588;9.642;2022-07-26T12:03:41;25.40;99.90
11087;DHT22;5597;47.588;9.642;2022-07-26T12:06:09;25.30;99.90
11087;DHT22;5597;47.588;9.642;2022-07-26T12:08:58;25.20;99.90
11087;DHT22;5597;47.588;9.642;2022-07-26T12:11:36;25.10;99.90
11087;DHT22;5597;47.588;9.642;2022-07-26T12:14:03;25.00;99.90
11087;DHT22;5597;47.588;9.642;2022-07-26T12:16:40;25.10;99.90
11087;DHT22;5597;47.588;9.642;2022-07-26T12:25:22;25.70;99.90
11087;DHT22;5597;47.588;9.642;2022-07-26T12:27:29;26.10;99.90
11087;DHT22;5597;47.588;9.642;2022-07-26T12:32:39;27.10;99.90
11087;DHT22;5597;47.588;9.642;2022-07-26T12:35:11;27.20;99.90
11087;DHT22;5597;47.588;9.642;2022-07-26T12:40:14;27.10;99.90
11087;DHT22;5597;47.588;9.642;2022-07-26T12:45:21;27.10;99.90
11087;DHT22;5597;47.588;9.642;2022-07-26T12:47:52;27.10;99.90
11087;DHT22;5597;47.588;9.642;2022-07-26T12:50:20;27.00;99.90
11087;DHT22;5597;47.588;9.642;2022-07-26T12:52:47;27.00;99.90
11087;DHT22;5597;47.588;9.642;2022-07-26T12:55:15;27.20;99.90
11087;DHT22;5597;47.588;9.642;2022-07-26T12:57:42;27.10;99.90
11087;DHT22;5597;47.588;9.642;2022-07-26T13:00:09;27.10;99.90
11087;DHT22;5597;47.588;9.642;2022-07-26T13:02:40;27.20;99.90
11087;DHT22;5597;47.588;9.642;2022-07-26T13:05:06;26.90;99.90
11087;DHT22;5597;47.588;9.642;2022-07-26T13:07:32;26.80;99.90
11087;DHT22;5597;47.588;9.642;2022-07-26T13:09:58;26.90;99.90
11087;DHT22;5597;47.588;9.642;2022-07-26T13:12:23;27.20;99.90
11087;DHT22;5597;47.588;9.642;2022-07-26T13:14:49;27.50;99.90
11087;DHT22;5597;47.588;9.642;2022-07-26T13:17:15;27.50;99.90
11087;DHT22;5597;47.588;9.642;2022-07-26T13:19:40;27.50;99.90
11087;DHT22;5597;47.588;9.642;2022-07-26T13:22:07;27.70;99.90
11087;DHT22;5597;47.588;9.642;2022-07-26T13:24:33;28.10;99.90
11087;DHT22;5597;47.588;9.642;2022-07-26T13:27:00;28.50;99.90
11087;DHT22;5597;47.588;9.642;2022-07-26T13:29:26;29.00;99.90
11087;DHT22;5597;47.588;9.642;2022-07-26T13:31:52;29.40;99.90
11087;DHT22;5597;47.588;9.642;2022-07-26T13:34:20;29.80;99.90
11087;DHT22;5597;47.588;9.642;2022-07-26T13:36:47;30.00;99.90
11087;DHT22;5597;47.588;9.642;2022-07-26T13:39:13;30.20;99.90
11087;DHT22;5597;47.588;9.642;2022-07-26T13:41:39;30.30;99.90
11087;DHT22;5597;47.588;9.642;2022-07-26T13:44:05;30.40;99.90
11087;DHT22;5597;47.588;9.642;2022-07-26T13:46:30;30.40;99.90
11087;DHT22;5597;47.588;9.642;2022-07-26T13:49:00;30.50;99.90
11087;DHT22;5597;47.588;9.642;2022-07-26T13:51:29;30.60;99.90
11087;DHT22;5597;47.588;9.642;2022-07-26T13:54:14;30.90;99.90
11087;DHT22;5597;47.588;9.642;2022-07-26T13:56:41;30.90;99.00
11087;DHT22;5597;47.588;9.642;2022-07-26T13:59:07;30.80;99.90
11087;DHT22;5597;47.588;9.642;2022-07-26T14:01:33;30.80;99.20
11087;DHT22;5597;47.588;9.642;2022-07-26T14:04:01;30.80;99.90
11087;DHT22;5597;47.588;9.642;2022-07-26T14:06:27;31.10;99.90
11087;DHT22;5597;47.588;9.642;2022-07-26T14:08:52;31.40;99.90
11087;DHT22;5597;47.588;9.642;2022-07-26T14:11:18;31.70;99.90
11087;DHT22;5597;47.588;9.642;2022-07-26T14:13:44;32.00;97.90
11087;DHT22;5597;47.588;9.642;2022-07-26T14:16:09;32.10;98.40
11087;DHT22;5597;47.588;9.642;2022-07-26T14:18:35;32.20;98.70
11087;DHT22;5597;47.588;9.642;2022-07-26T14:21:01;32.40;99.60
11087;DHT22;5597;47.588;9.642;2022-07-26T14:23:27;32.60;98.40
11087;DHT22;5597;47.588;9.642;2022-07-26T14:25:53;32.70;96.70
11087;DHT22;5597;47.588;9.642;2022-07-26T14:28:18;32.80;97.40
11087;DHT22;5597;47.588;9.642;2022-07-26T14:30:44;33.10;97.60
11087;DHT22;5597;47.588;9.642;2022-07-26T14:33:10;33.60;97.30
11087;DHT22;5597;47.588;9.642;2022-07-26T14:35:35;34.00;96.10
11087;DHT22;5597;47.588;9.642;2022-07-26T14:38:01;34.20;94.80
11087;DHT22;5597;47.588;9.642;2022-07-26T14:40:26;34.40;95.10
11087;DHT22;5597;47.588;9.642;2022-07-26T14:42:52;34.50;91.70
11087;DHT22;5597;47.588;9.642;2022-07-26T14:45:18;34.60;92.50
11087;DHT22;5597;47.588;9.642;2022-07-26T14:47:43;34.70;92.80
11087;DHT22;5597;47.588;9.642;2022-07-26T14:50:11;34.80;92.30
11087;DHT22;5597;47.588;9.642;2022-07-26T14:52:39;35.00;90.60
11087;DHT22;5597;47.588;9.642;2022-07-26T14:55:06;35.00;91.00
11087;DHT22;5597;47.588;9.642;2022-07-26T14:57:32;35.10;90.20
11087;DHT22;5597;47.588;9.642;2022-07-26T14:59:57;34.90;82.80
11087;DHT22;5597;47.588;9.642;2022-07-26T15:02:23;34.80;88.50
11087;DHT22;5597;47.588;9.642;2022-07-26T15:04:49;34.80;88.30
11087;DHT22;5597;47.588;9.642;2022-07-26T15:07:15;34.50;86.60
11087;DHT22;5597;47.588;9.642;2022-07-26T15:09:40;34.50;88.00
11087;DHT22;5597;47.588;9.642;2022-07-26T15:12:06;34.60;81.00
11087;DHT22;5597;47.588;9.642;2022-07-26T15:14:36;34.50;85.50
11087;DHT22;5597;47.588;9.642;2022-07-26T15:17:05;34.70;85.00
11087;DHT22;5597;47.588;9.642;2022-07-26T15:19:30;34.80;85.50
11087;DHT22;5597;47.588;9.642;2022-07-26T15:21:56;34.80;77.70
11087;DHT22;5597;47.588;9.642;2022-07-26T15:24:23;34.70;81.90
11087;DHT22;5597;47.588;9.642;2022-07-26T15:26:49;34.60;82.20
11087;DHT22;5597;47.588;9.642;2022-07-26T15:29:14;34.70;79.30
11087;DHT22;5597;47.588;9.642;2022-07-26T15:31:40;34.40;77.70
11087;DHT22;5597;47.588;9.642;2022-07-26T15:34:06;34.20;81.10
11087;DHT22;5597;47.588;9.642;2022-07-26T15:36:33;34.00;78.80
11087;DHT22;5597;47.588;9.642;2022-07-26T15:38:58;33.80;79.30
11087;DHT22;5597;47.588;9.642;2022-07-26T15:41:24;33.70;83.00
11087;DHT22;5597;47.588;9.642;2022-07-26T15:43:50;33.60;79.50
11087;DHT22;5597;47.588;9.642;2022-07-26T15:46:15;33.50;82.60
11087;DHT22;5597;47.588;9.642;2022-07-26T15:48:41;33.60;83.10
11087;DHT22;5597;47.588;9.642;2022-07-26T15:51:07;33.70;84.30
11087;DHT22;5597;47.588;9.642;2022-07-26T15:53:32;33.70;79.10
11087;DHT22;5597;47.588;9.642;2022-07-26T15:55:59;33.70;80.70
11087;DHT22;5597;47.588;9.642;2022-07-26T15:58:27;33.70;81.00
11087;DHT22;5597;47.588;9.642;2022-07-26T16:00:54;33.40;74.90
11087;DHT22;5597;47.588;9.642;2022-07-26T16:03:20;33.00;79.20
11087;DHT22;5597;47.588;9.642;2022-07-26T16:05:45;33.00;82.80
11087;DHT22;5597;47.588;9.642;2022-07-26T16:08:12;32.90;82.60
11087;DHT22;5597;47.588;9.642;2022-07-26T16:10:38;32.80;76.30
11087;DHT22;5597;47.588;9.642;2022-07-26T16:13:03;32.60;80.10
11087;DHT22;5597;47.588;9.642;2022-07-26T16:15:29;32.50;80.00
11087;DHT22;5597;47.588;9.642;2022-07-26T16:17:55;32.30;81.70